Time;durP1;ratioP1;P1;durP2;ratioP2;P2;SDS_P1;SDS_P2;PMS_P1;PMS_P2;Temp;Humidity;BMP_temperature;BMP_pressure;BME280_temperature;BME280_humidity;BME280_pressure;Samples;Min_cycle;Max_cycle;Signal;HPM_P1;HPM_P2
2020/12/07 00:05:15;;;;;;;18.63;4.82;;;4.20;99.90;;;;;;10483505;28;20090;-51
2020/12/07 00:10:36;;;;;;;13.52;4.88;;;4.20;99.90;;;;;;10492488;28;20123;-51
2020/12/07 00:15:57;;;;;;;11.73;4.55;;;4.20;99.90;;;;;;10477719;28;20049;-51
2020/12/07 00:21:18;;;;;;;13.57;5.13;;;4.30;99.90;;;;;;10462891;28;20148;-51
2020/12/07 00:26:43;;;;;;;12.65;4.88;;;4.30;99.90;;;;;;10488752;28;20463;-51
2020/12/07 00:32:04;;;;;;;13.90;4.13;;;4.40;99.90;;;;;;10498401;28;20453;-51
2020/12/07 00:37:25;;;;;;;10.48;4.30;;;4.40;99.90;;;;;;10496544;28;20059;-51
2020/12/07 00:42:46;;;;;;;10.00;4.60;;;4.50;99.90;;;;;;10496291;28;20040;-51
2020/12/07 00:48:07;;;;;;;11.23;4.68;;;4.50;99.90;;;;;;10491623;28;20135;-51
2020/12/07 00:53:28;;;;;;;10.70;4.60;;;4.50;99.90;;;;;;10502231;28;20048;-51
2020/12/07 00:58:49;;;;;;;7.38;4.35;;;4.50;99.90;;;;;;10501044;28;20039;-51
2020/12/07 01:04:10;;;;;;;12.07;4.15;;;4.50;99.90;;;;;;10481621;28;20035;-51
2020/12/07 01:09:31;;;;;;;7.63;3.45;;;4.60;99.90;;;;;;10489307;28;22338;-51
2020/12/07 01:14:52;;;;;;;9.43;3.88;;;4.70;99.90;;;;;;10497683;28;20407;-51
2020/12/07 01:20:13;;;;;;;8.48;3.55;;;4.70;99.90;;;;;;10465439;28;20049;-51
2020/12/07 01:25:34;;;;;;;6.15;2.50;;;4.70;99.90;;;;;;10403555;28;20470;-51
2020/12/07 01:30:55;;;;;;;10.40;3.30;;;4.80;99.90;;;;;;10405137;28;20063;-51
2020/12/07 01:36:16;;;;;;;7.53;3.67;;;4.90;99.90;;;;;;10401756;28;20493;-51
2020/12/07 01:41:36;;;;;;;13.30;3.92;;;4.90;99.90;;;;;;10404050;28;20043;-51
2020/12/07 01:46:58;;;;;;;8.80;3.05;;;5.00;99.90;;;;;;10407329;28;20107;-51
2020/12/07 01:52:21;;;;;;;9.20;2.97;;;4.90;99.90;;;;;;10405245;28;20066;-51
2020/12/07 01:57:42;;;;;;;14.38;4.55;;;4.80;99.90;;;;;;10410331;28;20120;-51
2020/12/07 02:03:03;;;;;;;9.50;4.03;;;4.90;99.90;;;;;;10407942;28;20037;-51
2020/12/07 02:08:24;;;;;;;12.32;3.72;;;4.90;99.90;;;;;;10403064;28;20537;-52
2020/12/07 02:13:45;;;;;;;8.90;3.13;;;4.90;99.90;;;;;;10404210;28;20045;-52
2020/12/07 02:19:06;;;;;;;8.98;3.55;;;4.90;99.90;;;;;;10402123;28;20411;-51
2020/12/07 02:24:27;;;;;;;7.30;4.07;;;4.90;99.90;;;;;;10401278;28;20052;-52
2020/12/07 02:29:48;;;;;;;6.97;2.92;;;4.90;99.90;;;;;;10400832;28;20029;-52
2020/12/07 02:35:10;;;;;;;6.68;2.30;;;4.90;99.90;;;;;;10402864;28;20026;-52
2020/12/07 02:40:31;;;;;;;9.23;2.95;;;4.90;99.90;;;;;;10404043;28;20539;-52
2020/12/07 02:45:52;;;;;;;11.10;4.18;;;4.90;99.90;;;;;;10403707;28;20049;-52
2020/12/07 02:51:13;;;;;;;10.05;3.50;;;4.90;99.90;;;;;;10405978;28;20786;-52
2020/12/07 02:56:34;;;;;;;6.57;2.85;;;5.00;99.90;;;;;;10405814;28;20497;-52
2020/12/07 03:01:55;;;;;;;9.48;3.83;;;5.00;99.90;;;;;;10406277;28;20489;-52
2020/12/07 03:07:16;;;;;;;8.98;2.95;;;5.00;99.90;;;;;;10394043;28;20112;-52
2020/12/07 03:12:37;;;;;;;9.70;3.13;;;5.00;99.90;;;;;;10410117;28;20049;-52
2020/12/07 03:17:58;;;;;;;9.15;2.42;;;5.10;99.90;;;;;;10408890;28;20041;-52
2020/12/07 03:23:19;;;;;;;8.55;2.75;;;5.10;99.90;;;;;;10479718;28;20055;-52
2020/12/07 03:28:40;;;;;;;12.05;4.47;;;5.20;99.90;;;;;;10479934;28;20215;-52
2020/12/07 03:34:02;;;;;;;8.52;3.75;;;5.20;99.90;;;;;;10494660;28;20055;-53
2020/12/07 03:39:23;;;;;;;6.15;2.40;;;5.20;99.90;;;;;;10497784;28;20047;-52
2020/12/07 03:44:44;;;;;;;9.23;3.00;;;5.20;99.90;;;;;;10486814;28;20052;-53
2020/12/07 03:50:05;;;;;;;7.57;2.47;;;5.10;99.90;;;;;;10503175;28;20040;-53
2020/12/07 03:55:26;;;;;;;6.20;2.25;;;5.10;99.90;;;;;;10496301;28;20143;-53
2020/12/07 04:00:47;;;;;;;4.90;2.17;;;5.10;99.90;;;;;;10496621;28;20044;-53
2020/12/07 04:11:29;;;;;;;11.73;2.65;;;5.10;99.90;;;;;;10477047;28;20115;-52
2020/12/07 04:16:49;;;;;;;11.52;2.83;;;5.20;99.90;;;;;;10492434;28;20055;-53
2020/12/07 04:22:10;;;;;;;8.98;2.88;;;5.20;99.90;;;;;;10487277;28;20044;-53
2020/12/07 04:27:31;;;;;;;5.47;2.25;;;5.30;99.90;;;;;;10491071;28;20043;-52
2020/12/07 04:32:52;;;;;;;8.20;3.53;;;5.30;99.90;;;;;;10497118;28;20152;-52
2020/12/07 04:38:13;;;;;;;8.63;2.60;;;5.30;99.90;;;;;;10492971;28;20052;-52
2020/12/07 04:43:35;;;;;;;6.18;2.30;;;5.30;99.90;;;;;;10492208;28;20044;-53
2020/12/07 04:49:00;;;;;;;3.88;2.22;;;5.40;99.90;;;;;;10491757;28;20062;-53
2020/12/07 04:54:24;;;;;;;4.53;2.35;;;5.40;99.90;;;;;;10495130;28;20033;-53
2020/12/07 04:59:45;;;;;;;4.57;2.35;;;5.50;99.90;;;;;;10496308;28;20049;-52
2020/12/07 05:05:07;;;;;;;6.47;2.03;;;5.50;99.90;;;;;;10496340;28;20046;-53
2020/12/07 05:10:38;;;;;;;2.65;1.27;;;5.60;99.90;;;;;;10489609;28;20392;-52
2020/12/07 05:15:59;;;;;;;3.95;1.80;;;5.60;99.90;;;;;;10497748;28;20138;-52
2020/12/07 05:21:20;;;;;;;4.07;0.88;;;5.70;99.90;;;;;;10495780;28;20039;-52
2020/12/07 05:26:43;;;;;;;6.75;1.50;;;5.60;99.90;;;;;;10485977;28;20079;-53
2020/12/07 05:32:04;;;;;;;2.03;0.80;;;5.60;99.90;;;;;;10494773;28;20768;-53
2020/12/07 05:37:25;;;;;;;1.48;0.52;;;5.60;99.90;;;;;;10489943;28;20477;-53
2020/12/07 05:42:46;;;;;;;1.85;0.65;;;5.60;99.90;;;;;;10491986;28;20036;-52
2020/12/07 05:48:09;;;;;;;1.40;0.57;;;5.70;99.90;;;;;;10492635;28;20042;-53
2020/12/07 05:53:37;;;;;;;1.60;0.80;;;5.80;99.90;;;;;;10487628;28;20427;-53
2020/12/07 05:59:09;;;;;;;0.98;0.60;;;5.70;99.90;;;;;;10487931;28;20489;-53
2020/12/07 06:04:32;;;;;;;1.27;0.60;;;5.70;99.90;;;;;;10493342;28;20041;-53
2020/12/07 06:09:54;;;;;;;1.60;0.55;;;5.70;99.90;;;;;;10494924;28;20059;-53
2020/12/07 06:15:19;;;;;;;1.23;0.55;;;5.80;99.90;;;;;;10493649;28;20127;-53
2020/12/07 06:20:40;;;;;;;1.58;0.88;;;5.90;99.90;;;;;;10494809;28;20081;-53
2020/12/07 06:26:04;;;;;;;1.75;0.77;;;5.80;99.90;;;;;;10490804;28;20048;-53
2020/12/07 06:31:28;;;;;;;0.93;0.30;;;5.70;99.90;;;;;;10493311;28;20679;-53
2020/12/07 06:36:49;;;;;;;1.80;0.73;;;5.80;99.90;;;;;;10478839;28;20082;-53
2020/12/07 06:42:12;;;;;;;2.40;0.80;;;5.70;99.90;;;;;;10489100;28;20376;-53
2020/12/07 06:47:33;;;;;;;1.88;0.77;;;5.70;99.90;;;;;;10489209;28;20700;-53
2020/12/07 06:52:53;;;;;;;2.08;0.63;;;5.70;99.90;;;;;;10491970;28;20036;-53
2020/12/07 06:58:34;;;;;;;3.75;1.27;;;5.80;99.90;;;;;;10482048;28;20488;-53
2020/12/07 07:03:56;;;;;;;1.60;0.85;;;5.80;99.90;;;;;;10490316;28;20040;-53
2020/12/07 07:09:17;;;;;;;0.68;0.32;;;5.80;99.90;;;;;;10481394;28;20526;-53
2020/12/07 07:14:39;;;;;;;3.72;1.08;;;5.80;99.90;;;;;;10467346;28;20131;-53
2020/12/07 07:20:03;;;;;;;0.90;0.43;;;5.90;99.90;;;;;;10482021;28;20109;-53
2020/12/07 07:25:47;;;;;;;3.42;1.02;;;6.00;99.90;;;;;;10486185;28;20656;-53
2020/12/07 07:31:09;;;;;;;3.50;1.25;;;5.90;99.90;;;;;;10492522;28;20396;-53
2020/12/07 07:36:30;;;;;;;2.30;1.08;;;5.90;99.90;;;;;;10469778;28;20043;-53
2020/12/07 07:41:51;;;;;;;1.83;0.77;;;5.90;99.90;;;;;;10494188;28;20121;-53
2020/12/07 07:47:21;;;;;;;1.70;1.02;;;5.90;99.90;;;;;;10492561;28;20052;-52
2020/12/07 08:15:48;;;;;;;;;;;5.80;99.90;;;;;;10480217;28;20041;-53
2020/12/07 08:21:10;;;;;;;3.30;1.27;;;5.80;99.90;;;;;;10483471;28;19928;-53
2020/12/07 08:26:31;;;;;;;3.15;1.30;;;5.90;99.90;;;;;;10472657;28;20567;-52
2020/12/07 08:31:52;;;;;;;4.00;1.00;;;6.00;99.90;;;;;;10460545;28;20776;-52
2020/12/07 08:37:13;;;;;;;1.67;0.60;;;5.90;99.90;;;;;;10470346;28;20044;-52
2020/12/07 08:42:34;;;;;;;4.38;1.70;;;5.90;99.90;;;;;;10465495;28;20048;-53
2020/12/07 08:47:55;;;;;;;3.60;0.82;;;5.90;99.90;;;;;;10472861;28;20483;-53
2020/12/07 08:53:16;;;;;;;3.58;1.45;;;5.90;99.90;;;;;;10473291;28;20048;-53
2020/12/07 08:58:37;;;;;;;2.13;0.80;;;6.00;99.90;;;;;;10477215;28;20504;-53
2020/12/07 09:04:02;;;;;;;1.75;0.80;;;6.10;99.90;;;;;;10476100;28;20130;-53
2020/12/07 09:09:23;;;;;;;5.63;1.33;;;6.10;99.90;;;;;;10471752;28;20381;-53
2020/12/07 09:14:44;;;;;;;1.95;0.75;;;6.00;99.90;;;;;;10449855;28;20059;-52
2020/12/07 09:20:05;;;;;;;2.80;0.65;;;6.00;99.90;;;;;;10454968;28;20040;-53
2020/12/07 09:25:26;;;;;;;2.22;0.80;;;6.10;99.90;;;;;;10472245;28;20040;-52
2020/12/07 09:30:47;;;;;;;3.58;1.35;;;6.10;99.90;;;;;;10467483;28;20337;-53
2020/12/07 09:36:09;;;;;;;4.30;1.55;;;6.00;99.90;;;;;;10471073;28;20063;-53
2020/12/07 09:41:30;;;;;;;2.83;0.93;;;6.10;99.90;;;;;;10468495;28;20036;-53
2020/12/07 09:46:52;;;;;;;2.22;0.90;;;6.10;99.90;;;;;;10466900;28;20055;-53
2020/12/07 09:52:13;;;;;;;4.38;1.77;;;6.10;99.90;;;;;;10469925;28;20040;-53
2020/12/07 09:57:34;;;;;;;6.45;1.95;;;6.00;99.90;;;;;;10470657;28;20473;-53
2020/12/07 10:02:55;;;;;;;4.90;1.35;;;6.00;99.90;;;;;;10468177;28;20166;-53
2020/12/07 10:08:16;;;;;;;6.95;1.58;;;6.00;99.90;;;;;;10475231;28;20047;-53
2020/12/07 10:13:37;;;;;;;4.80;1.65;;;6.00;99.90;;;;;;10468947;28;20044;-53
2020/12/07 10:18:58;;;;;;;4.95;2.78;;;6.10;99.90;;;;;;10465386;28;20056;-52
2020/12/07 10:24:20;;;;;;;4.78;1.30;;;6.10;99.90;;;;;;10479431;28;20496;-53
2020/12/07 10:29:41;;;;;;;4.15;1.35;;;6.00;99.90;;;;;;10468916;28;20536;-53
2020/12/07 10:35:02;;;;;;;3.80;1.75;;;6.00;99.90;;;;;;10473022;28;20021;-53
2020/12/07 10:40:23;;;;;;;5.32;1.88;;;6.00;99.90;;;;;;10471975;28;20728;-53
2020/12/07 10:45:44;;;;;;;6.40;1.50;;;6.00;99.90;;;;;;10470356;28;20048;-53
2020/12/07 10:51:05;;;;;;;5.85;2.90;;;6.00;99.90;;;;;;10465720;28;20059;-53
2020/12/07 10:56:26;;;;;;;8.48;3.67;;;5.90;99.90;;;;;;10493699;28;20035;-53
2020/12/07 11:01:52;;;;;;;10.32;4.35;;;5.80;99.90;;;;;;10483284;28;20399;-53
2020/12/07 11:07:16;;;;;;;14.88;4.25;;;5.90;99.90;;;;;;10476025;28;20059;-53
2020/12/07 11:12:40;;;;;;;12.05;4.95;;;5.80;99.90;;;;;;10467859;28;20041;-51
2020/12/07 11:18:01;;;;;;;10.80;4.53;;;5.70;99.90;;;;;;10477104;28;20086;-51
2020/12/07 11:23:23;;;;;;;14.38;4.55;;;5.90;99.90;;;;;;10484918;28;20052;-51
2020/12/07 11:28:46;;;;;;;11.25;4.40;;;5.80;99.90;;;;;;10457944;28;20097;-51
2020/12/07 11:34:07;;;;;;;9.52;4.85;;;5.70;99.90;;;;;;10481471;28;20037;-51
2020/12/07 11:44:48;;;;;;;14.75;5.85;;;5.70;99.90;;;;;;10475593;28;20067;-53
2020/12/07 11:50:09;;;;;;;17.15;5.13;;;5.70;99.90;;;;;;10477119;28;20536;-53
2020/12/07 11:55:30;;;;;;;13.68;5.72;;;5.60;99.90;;;;;;10458103;28;20044;-53
2020/12/07 12:00:51;;;;;;;14.93;5.50;;;5.70;99.90;;;;;;10483110;28;20324;-53
2020/12/07 12:06:20;;;;;;;12.57;5.15;;;5.60;99.90;;;;;;10480229;28;20436;-53
2020/12/07 12:11:43;;;;;;;14.35;4.55;;;5.50;99.90;;;;;;10480693;28;20041;-53
2020/12/07 12:17:04;;;;;;;13.52;6.75;;;5.60;99.90;;;;;;10458979;28;20036;-51
2020/12/07 12:22:25;;;;;;;15.80;6.45;;;5.50;99.90;;;;;;10479329;28;20179;-51
2020/12/07 12:27:46;;;;;;;14.20;6.03;;;5.40;99.90;;;;;;10472524;28;20134;-50
2020/12/07 12:33:07;;;;;;;25.48;7.22;;;5.20;99.90;;;;;;10459124;28;20658;-50
2020/12/07 12:38:28;;;;;;;14.02;6.13;;;5.30;99.90;;;;;;10448056;28;20087;-51
2020/12/07 12:43:49;;;;;;;12.35;5.38;;;5.30;99.90;;;;;;10487323;28;20056;-51
2020/12/07 12:49:10;;;;;;;20.02;6.35;;;5.20;99.90;;;;;;10478988;28;20033;-51
2020/12/07 12:54:31;;;;;;;13.95;4.68;;;5.30;99.90;;;;;;10476237;28;20036;-53
2020/12/07 12:59:52;;;;;;;20.83;6.15;;;5.40;99.90;;;;;;10490480;28;20060;-53
2020/12/07 13:05:13;;;;;;;13.13;6.10;;;5.40;99.90;;;;;;10484097;28;20040;-53
2020/12/07 13:10:34;;;;;;;20.15;7.10;;;5.50;99.90;;;;;;10488567;28;20040;-53
2020/12/07 13:16:04;;;;;;;17.40;5.50;;;5.50;99.90;;;;;;10485956;28;20186;-53
2020/12/07 13:21:44;;;;;;;16.13;5.40;;;5.40;99.90;;;;;;10482755;28;20047;-51
2020/12/07 13:32:33;;;;;;;17.90;6.70;;;5.30;99.90;;;;;;10488207;28;20035;-50
2020/12/07 13:37:54;;;;;;;18.98;6.35;;;5.30;99.90;;;;;;10486215;28;20542;-53
2020/12/07 13:43:15;;;;;;;19.77;7.45;;;5.40;99.90;;;;;;10484878;28;20045;-53
2020/12/07 13:48:36;;;;;;;19.58;5.93;;;5.40;99.90;;;;;;10495152;28;20044;-53
2020/12/07 13:53:58;;;;;;;24.20;7.63;;;5.40;99.90;;;;;;10484940;28;20391;-53
2020/12/07 13:59:19;;;;;;;23.02;6.63;;;5.40;99.90;;;;;;10480875;28;20035;-53
2020/12/07 14:04:47;;;;;;;30.38;8.05;;;5.40;99.90;;;;;;10486307;28;20044;-53
2020/12/07 14:10:11;;;;;;;19.83;8.85;;;5.40;99.90;;;;;;10467566;28;20401;-53
2020/12/07 14:15:32;;;;;;;24.73;7.93;;;5.30;99.90;;;;;;10484334;28;20044;-51
2020/12/07 14:42:54;;;;;;;24.90;8.40;;;5.20;99.90;;;;;;10459348;28;21773;-53
2020/12/07 14:48:15;;;;;;;24.95;7.93;;;5.10;99.90;;;;;;10461885;28;20177;-54
2020/12/07 14:53:36;;;;;;;26.92;8.07;;;5.10;99.90;;;;;;10465369;28;20052;-54
2020/12/07 15:15:49;;;;;;;25.67;8.82;;;4.90;99.90;;;;;;10461601;28;20362;-54
2020/12/07 15:21:10;;;;;;;20.92;8.18;;;4.90;99.90;;;;;;10432018;28;20041;-54
2020/12/07 15:26:31;;;;;;;33.17;7.20;;;4.90;99.90;;;;;;10379179;28;20044;-54
2020/12/07 15:31:54;;;;;;;23.88;9.15;;;4.80;99.90;;;;;;10395834;28;21918;-54
2020/12/07 15:37:15;;;;;;;29.92;8.57;;;4.80;99.90;;;;;;10395994;28;20552;-54
2020/12/07 15:42:37;;;;;;;27.15;9.00;;;4.70;99.90;;;;;;10393234;28;20099;-54
2020/12/07 15:47:58;;;;;;;21.42;7.07;;;4.70;99.90;;;;;;10390361;28;20041;-54
2020/12/07 15:53:20;;;;;;;25.83;6.95;;;4.70;99.90;;;;;;10394646;28;20358;-54
2020/12/07 15:58:41;;;;;;;20.63;5.05;;;4.60;99.90;;;;;;10382070;28;20045;-54
2020/12/07 16:04:02;;;;;;;24.33;7.15;;;4.70;99.90;;;;;;10393737;28;20524;-54
2020/12/07 16:09:26;;;;;;;28.08;7.70;;;4.70;99.90;;;;;;10394411;28;20060;-54
2020/12/07 16:14:47;;;;;;;20.20;6.25;;;4.60;99.90;;;;;;10393923;28;20474;-54
2020/12/07 16:20:08;;;;;;;20.40;7.95;;;4.60;99.90;;;;;;10408608;28;20097;-54
2020/12/07 16:25:29;;;;;;;12.63;5.22;;;4.50;99.90;;;;;;10456651;28;20140;-54
2020/12/07 16:30:50;;;;;;;26.42;6.47;;;4.60;99.90;;;;;;10470913;28;20622;-54
2020/12/07 16:36:11;;;;;;;24.27;6.95;;;4.50;99.90;;;;;;10472615;28;20037;-54
2020/12/07 16:41:32;;;;;;;26.52;6.45;;;4.50;99.90;;;;;;10470636;28;20052;-54
2020/12/07 16:46:59;;;;;;;15.05;5.40;;;4.50;99.90;;;;;;10453865;28;20082;-54
2020/12/07 16:52:20;;;;;;;26.65;8.80;;;4.50;99.90;;;;;;10464483;28;21021;-54
2020/12/07 16:57:41;;;;;;;22.73;6.07;;;4.40;99.90;;;;;;10454336;28;20346;-54
2020/12/07 17:03:02;;;;;;;16.60;5.57;;;4.30;99.90;;;;;;10468477;28;20070;-54
2020/12/07 17:08:23;;;;;;;23.90;7.47;;;4.20;99.90;;;;;;10468367;28;20100;-53
2020/12/07 17:13:44;;;;;;;23.67;5.65;;;4.20;99.90;;;;;;10475135;28;20040;-54
2020/12/07 17:19:05;;;;;;;23.40;7.47;;;4.20;99.90;;;;;;10463779;28;20085;-54
2020/12/07 17:24:26;;;;;;;22.00;6.53;;;4.20;99.90;;;;;;10477189;28;20031;-54
2020/12/07 17:29:47;;;;;;;16.42;6.90;;;4.10;99.90;;;;;;10475113;28;20025;-54
2020/12/07 17:35:09;;;;;;;40.42;8.23;;;4.10;99.90;;;;;;10452095;28;20371;-53
2020/12/07 17:40:30;;;;;;;18.17;6.53;;;4.10;99.90;;;;;;10473515;28;20053;-53
2020/12/07 17:45:51;;;;;;;18.40;5.95;;;4.10;99.90;;;;;;10463659;28;22469;-53
2020/12/07 17:51:13;;;;;;;24.83;7.32;;;4.10;99.90;;;;;;10430031;28;20537;-54
2020/12/07 17:56:34;;;;;;;27.77;6.60;;;4.20;99.90;;;;;;10455934;28;20226;-54
2020/12/07 18:01:55;;;;;;;32.65;8.15;;;4.10;99.90;;;;;;10461312;28;20072;-54
2020/12/07 18:07:16;;;;;;;21.13;6.15;;;3.90;99.90;;;;;;10464825;28;20040;-53
2020/12/07 18:12:37;;;;;;;22.13;8.15;;;4.00;99.90;;;;;;10469083;28;20055;-53
2020/12/07 18:17:58;;;;;;;15.13;6.35;;;4.00;99.90;;;;;;10460524;28;20036;-54
2020/12/07 18:23:19;;;;;;;25.45;6.68;;;4.00;99.90;;;;;;10473925;28;20056;-54
2020/12/07 18:28:40;;;;;;;18.42;5.88;;;4.00;99.90;;;;;;10489815;28;20075;-54
2020/12/07 18:34:01;;;;;;;30.13;7.85;;;4.00;99.90;;;;;;10467173;28;20039;-54
2020/12/07 18:39:22;;;;;;;21.83;6.50;;;3.90;99.90;;;;;;10481172;28;20035;-53
2020/12/07 18:44:44;;;;;;;20.17;9.48;;;3.90;99.90;;;;;;10491837;28;20036;-53
2020/12/07 18:50:06;;;;;;;31.92;7.75;;;3.90;99.90;;;;;;10498141;28;20052;-54
2020/12/07 18:55:27;;;;;;;17.23;8.13;;;3.90;99.90;;;;;;10489841;28;20348;-54
2020/12/07 19:00:48;;;;;;;25.10;6.90;;;3.80;99.90;;;;;;10499487;28;20320;-53
2020/12/07 19:06:12;;;;;;;24.60;6.90;;;3.90;99.90;;;;;;10483822;28;20408;-53
2020/12/07 19:11:33;;;;;;;16.90;6.03;;;3.80;99.90;;;;;;10482498;28;20095;-53
2020/12/07 19:16:56;;;;;;;26.55;7.68;;;3.80;99.90;;;;;;10477040;28;20633;-53
2020/12/07 19:22:18;;;;;;;21.63;6.88;;;3.80;99.90;;;;;;10479265;28;20049;-54
2020/12/07 19:27:39;;;;;;;21.60;6.55;;;3.70;99.90;;;;;;10499205;28;20041;-53
2020/12/07 19:33:00;;;;;;;27.80;7.18;;;3.80;99.90;;;;;;10498473;28;20032;-53
2020/12/07 19:38:22;;;;;;;16.02;7.28;;;3.70;99.90;;;;;;10478719;28;20020;-53
2020/12/07 19:43:42;;;;;;;23.75;6.85;;;3.80;99.90;;;;;;10482611;28;20101;-53
2020/12/07 19:49:05;;;;;;;22.17;8.80;;;3.70;99.90;;;;;;10470248;28;20484;-53
2020/12/07 19:54:26;;;;;;;19.00;6.40;;;3.70;99.90;;;;;;10487709;28;20048;-54
2020/12/07 19:59:47;;;;;;;19.88;6.32;;;3.60;99.90;;;;;;10485844;28;20036;-54
2020/12/07 20:05:08;;;;;;;18.75;8.40;;;3.60;99.90;;;;;;10490657;28;20029;-54
2020/12/07 20:10:29;;;;;;;16.98;6.72;;;3.60;99.90;;;;;;10501823;28;20622;-54
2020/12/07 20:15:50;;;;;;;26.58;6.43;;;3.50;99.90;;;;;;10499054;28;20055;-53
2020/12/07 20:21:11;;;;;;;14.43;5.97;;;3.50;99.90;;;;;;10482457;28;20106;-54
2020/12/07 20:26:32;;;;;;;17.33;5.20;;;3.50;99.90;;;;;;10477883;28;20041;-54
2020/12/07 20:31:53;;;;;;;19.10;5.05;;;3.50;99.90;;;;;;10476804;28;20604;-54
2020/12/07 20:37:17;;;;;;;16.50;6.65;;;3.40;99.90;;;;;;10483883;28;20566;-53
2020/12/07 20:42:38;;;;;;;11.75;4.13;;;3.40;99.90;;;;;;10498305;28;20036;-53
2020/12/07 20:47:59;;;;;;;16.65;6.13;;;3.30;99.90;;;;;;10481528;28;20067;-53
2020/12/07 20:53:20;;;;;;;21.35;6.30;;;3.30;99.90;;;;;;10475888;28;20114;-53
2020/12/07 20:58:41;;;;;;;15.23;6.20;;;3.30;99.90;;;;;;10477090;28;20049;-54
2020/12/07 21:04:02;;;;;;;15.25;4.80;;;3.20;99.90;;;;;;10488799;28;20041;-53
2020/12/07 21:09:23;;;;;;;11.52;5.82;;;3.20;99.90;;;;;;10502548;28;20585;-53
2020/12/07 21:14:44;;;;;;;14.50;4.75;;;3.20;99.90;;;;;;10507274;28;20059;-54
2020/12/07 21:20:05;;;;;;;25.08;5.55;;;3.20;99.90;;;;;;10423532;28;20068;-53
2020/12/07 21:25:26;;;;;;;22.08;5.78;;;3.20;99.90;;;;;;10484735;28;20028;-54
2020/12/07 21:30:47;;;;;;;11.90;4.38;;;3.20;99.90;;;;;;10492676;28;20032;-54
2020/12/07 21:36:08;;;;;;;18.40;6.80;;;3.20;99.90;;;;;;10484486;28;20101;-54
2020/12/07 21:41:34;;;;;;;14.52;5.97;;;3.10;99.90;;;;;;10483275;28;20510;-54
2020/12/07 21:46:55;;;;;;;15.65;4.60;;;3.20;99.90;;;;;;10495279;28;20490;-53
2020/12/07 21:52:16;;;;;;;19.20;6.15;;;3.10;99.90;;;;;;10484388;28;20044;-54
2020/12/07 21:57:37;;;;;;;11.93;4.63;;;3.00;99.90;;;;;;10467312;28;20040;-54
2020/12/07 22:02:58;;;;;;;13.43;4.35;;;2.90;99.90;;;;;;10466144;28;20062;-53
2020/12/07 22:08:19;;;;;;;12.75;4.05;;;2.90;99.90;;;;;;10460631;28;20036;-53
2020/12/07 22:13:40;;;;;;;38.30;5.68;;;2.80;99.90;;;;;;10473526;28;20103;-53
2020/12/07 22:19:01;;;;;;;9.60;4.32;;;2.90;99.90;;;;;;10484088;28;20036;-53
2020/12/07 22:24:22;;;;;;;18.38;3.92;;;2.90;99.90;;;;;;10478276;28;20083;-54
2020/12/07 22:29:43;;;;;;;12.68;4.15;;;2.90;99.90;;;;;;10489545;28;20032;-54
2020/12/07 22:35:04;;;;;;;10.73;3.58;;;2.70;99.90;;;;;;10487638;28;20047;-54
2020/12/07 22:40:25;;;;;;;14.23;4.50;;;2.70;99.90;;;;;;10486212;28;20582;-54
2020/12/07 22:45:46;;;;;;;8.52;3.30;;;2.70;99.90;;;;;;10483796;28;20877;-54
2020/12/07 22:51:10;;;;;;;13.32;2.60;;;2.80;99.90;;;;;;10487382;28;20041;-54
2020/12/07 22:56:31;;;;;;;21.38;6.93;;;2.80;99.90;;;;;;10487242;28;20124;-54
2020/12/07 23:01:52;;;;;;;6.53;3.88;;;2.80;99.90;;;;;;10472961;28;20028;-54
2020/12/07 23:07:13;;;;;;;14.50;4.05;;;2.80;99.90;;;;;;10487409;28;20571;-53
2020/12/07 23:12:34;;;;;;;10.85;3.97;;;2.70;99.90;;;;;;10488375;28;20083;-53
2020/12/07 23:17:55;;;;;;;18.17;4.25;;;2.80;99.90;;;;;;10478934;28;20118;-53
2020/12/07 23:23:16;;;;;;;8.18;4.60;;;2.80;99.90;;;;;;10484808;28;20040;-55
2020/12/07 23:28:36;;;;;;;13.90;3.97;;;2.80;99.90;;;;;;10480125;28;20105;-54
2020/12/07 23:33:58;;;;;;;18.95;4.95;;;2.90;99.90;;;;;;10471094;28;20044;-54
2020/12/07 23:39:19;;;;;;;14.05;5.00;;;2.90;99.90;;;;;;10465446;28;20055;-54
2020/12/07 23:44:40;;;;;;;8.90;3.75;;;2.90;99.90;;;;;;10459385;28;20039;-54
2020/12/07 23:50:10;;;;;;;15.35;2.55;;;2.80;99.90;;;;;;10493229;28;20120;-54
2020/12/07 23:55:32;;;;;;;10.35;3.78;;;2.90;99.90;;;;;;10480751;28;20040;-54
